createdAt,value
2018-12-29T00:00:59.232Z,3.46
2018-12-29T00:03:33.249Z,3.42
2018-12-29T00:06:08.071Z,3.47
2018-12-29T00:08:54.460Z,3.47
2018-12-29T00:11:34.539Z,3.52
2018-12-29T00:14:23.625Z,3.46
2018-12-29T00:17:00.578Z,3.52
2018-12-29T00:19:45.225Z,3.50
2018-12-29T00:22:48.091Z,3.54
2018-12-29T00:25:38.717Z,3.54
2018-12-29T00:28:18.733Z,3.49
2018-12-29T00:31:12.470Z,3.49
2018-12-29T00:34:18.729Z,3.75
2018-12-29T00:37:06.576Z,3.91
2018-12-29T00:39:48.742Z,3.91
2018-12-29T00:42:28.456Z,3.66
2018-12-29T00:45:03.067Z,3.74
2018-12-29T00:47:43.476Z,3.72
2018-12-29T00:50:16.712Z,3.72
2018-12-29T00:53:05.184Z,3.55
2018-12-29T00:55:35.211Z,3.47
2018-12-29T00:58:11.460Z,3.44
2018-12-29T01:00:57.847Z,3.44
2018-12-29T01:03:33.470Z,3.55
2018-12-29T01:06:25.168Z,3.48
2018-12-29T01:09:02.787Z,3.48
2018-12-29T01:11:43.513Z,3.44
2018-12-29T01:14:29.992Z,3.44
2018-12-29T01:17:11.594Z,3.43
2018-12-29T01:19:59.256Z,3.55
2018-12-29T01:22:40.095Z,3.36
2018-12-29T01:25:14.023Z,3.35
2018-12-29T01:28:03.642Z,3.36
2018-12-29T01:30:45.211Z,3.30
2018-12-29T01:33:22.576Z,3.22
2018-12-29T01:36:11.577Z,3.38
2018-12-29T01:38:49.327Z,3.62
2018-12-29T01:41:28.175Z,3.62
2018-12-29T01:44:11.513Z,3.85
2018-12-29T01:46:52.269Z,3.56
2018-12-29T01:49:29.223Z,3.56
2018-12-29T01:52:05.110Z,3.52
2018-12-29T01:54:51.831Z,3.65
2018-12-29T01:57:37.030Z,3.75
2018-12-29T02:00:20.111Z,3.50
2018-12-29T02:02:59.511Z,3.50
2018-12-29T02:05:41.595Z,3.37
2018-12-29T02:08:21.862Z,3.48
2018-12-29T02:10:57.290Z,3.50
2018-12-29T02:13:34.496Z,3.40
2018-12-29T02:16:16.454Z,3.61
2018-12-29T02:18:52.749Z,3.61
2018-12-29T02:21:34.471Z,3.83
2018-12-29T02:24:15.345Z,3.81
2018-12-29T02:26:52.421Z,3.72
2018-12-29T02:29:38.571Z,3.52
2018-12-29T02:32:19.385Z,3.38
2018-12-29T02:34:56.911Z,3.29
2018-12-29T02:37:45.293Z,3.20
2018-12-29T02:40:22.432Z,3.07
2018-12-29T02:42:59.145Z,3.07
2018-12-29T02:45:50.006Z,3.02
2018-12-29T02:48:38.119Z,2.92
2018-12-29T02:51:10.207Z,2.87
2018-12-29T02:54:00.410Z,2.79
2018-12-29T02:56:46.333Z,2.83
2018-12-29T02:59:17.709Z,2.83
2018-12-29T03:02:04.786Z,2.88
2018-12-29T03:04:49.603Z,3.01
2018-12-29T03:07:38.194Z,3.13
2018-12-29T03:10:22.655Z,3.13
2018-12-29T03:12:58.683Z,3.09
2018-12-29T03:15:42.033Z,3.11
2018-12-29T03:18:29.472Z,3.11
2018-12-29T03:21:09.464Z,3.10
2018-12-29T03:23:56.127Z,3.16
2018-12-29T03:26:38.174Z,3.16
2018-12-29T03:29:19.834Z,3.13
2018-12-29T03:32:06.203Z,3.13
2018-12-29T03:34:49.527Z,3.05
2018-12-29T03:37:26.361Z,3.08
2018-12-29T03:40:14.907Z,3.10
2018-12-29T03:42:53.381Z,3.13
2018-12-29T03:45:35.875Z,3.13
2018-12-29T03:48:28.042Z,3.10
2018-12-29T03:51:05.830Z,3.10
2018-12-29T03:53:46.182Z,3.03
2018-12-29T03:56:34.441Z,3.04
2018-12-29T03:59:10.125Z,3.07
2018-12-29T04:01:56.026Z,3.11
2018-12-29T04:04:39.118Z,3.13
2018-12-29T04:07:10.007Z,3.15
2018-12-29T04:09:59.762Z,3.15
2018-12-29T04:12:39.013Z,3.15
2018-12-29T04:15:15.093Z,3.16
2018-12-29T04:18:03.408Z,3.17
2018-12-29T04:20:39.155Z,3.27
2018-12-29T04:23:19.223Z,3.23
2018-12-29T04:25:59.785Z,3.17
2018-12-29T04:28:41.332Z,3.16
2018-12-29T04:31:11.725Z,3.16
2018-12-29T04:34:02.189Z,3.14
2018-12-29T04:36:48.524Z,3.14
2018-12-29T04:39:18.943Z,3.24
2018-12-29T04:42:04.150Z,3.19
2018-12-29T04:44:43.102Z,3.19
2018-12-29T04:47:24.700Z,3.14
2018-12-29T04:50:15.322Z,3.23
2018-12-29T04:52:53.727Z,3.36
2018-12-29T04:55:43.609Z,3.38
2018-12-29T04:58:27.305Z,3.37
2018-12-29T05:01:00.481Z,3.49
2018-12-29T05:03:39.681Z,3.49
2018-12-29T05:06:12.785Z,3.48
2018-12-29T05:08:46.952Z,3.48
2018-12-29T05:11:20.406Z,3.50
2018-12-29T05:14:01.565Z,3.54
2018-12-29T05:16:45.481Z,3.59
2018-12-29T05:19:17.085Z,3.63
2018-12-29T05:21:53.869Z,3.68
2018-12-29T05:24:32.575Z,3.76
2018-12-29T05:27:07.179Z,3.73
2018-12-29T05:29:58.111Z,3.67
2018-12-29T05:32:40.614Z,3.67
2018-12-29T05:35:31.403Z,3.70
2018-12-29T05:38:12.885Z,3.79
2018-12-29T05:40:49.533Z,3.81
2018-12-29T05:43:29.722Z,3.81
2018-12-29T05:46:20.348Z,3.87
2018-12-29T05:48:52.365Z,3.87
2018-12-29T05:51:22.334Z,3.93
2018-12-29T05:54:07.980Z,3.85
2018-12-29T05:56:49.090Z,3.72
2018-12-29T05:59:20.163Z,3.55
2018-12-29T06:02:08.820Z,3.55
2018-12-29T06:04:51.057Z,3.55
2018-12-29T06:07:23.132Z,3.60
2018-12-29T06:10:10.155Z,3.66
2018-12-29T06:12:51.463Z,3.64
2018-12-29T06:15:23.284Z,3.69
2018-12-29T06:18:08.865Z,3.69
2018-12-29T06:20:50.344Z,3.85
2018-12-29T06:23:20.202Z,3.85
2018-12-29T06:26:07.023Z,3.91
2018-12-29T06:28:56.019Z,3.91
2018-12-29T06:31:28.868Z,3.84
2018-12-29T06:34:09.483Z,3.84
2018-12-29T06:36:49.735Z,3.79
2018-12-29T06:39:23.393Z,3.86
2018-12-29T06:41:59.786Z,3.91
2018-12-29T06:44:39.864Z,3.91
2018-12-29T06:47:14.252Z,4.02
2018-12-29T06:50:02.461Z,4.03
2018-12-29T06:52:53.839Z,4.06
2018-12-29T06:55:21.376Z,4.06
2018-12-29T06:57:57.974Z,4.11
2018-12-29T07:00:38.760Z,4.11
2018-12-29T07:03:09.654Z,4.17
2018-12-29T07:05:53.271Z,4.14
2018-12-29T07:08:37.076Z,4.17
2018-12-29T07:11:07.537Z,4.17
2018-12-29T07:13:54.730Z,4.15
2018-12-29T07:16:30.729Z,4.39
2018-12-29T07:19:08.252Z,4.40
2018-12-29T07:21:57.940Z,4.44
2018-12-29T07:24:34.281Z,4.44
2018-12-29T07:27:09.570Z,4.37
2018-12-29T07:29:53.934Z,4.36
2018-12-29T07:32:29.400Z,4.36
2018-12-29T07:35:01.262Z,4.33
2018-12-29T07:37:36.758Z,4.33
2018-12-29T07:40:17.203Z,4.43
2018-12-29T07:42:52.717Z,4.43
2018-12-29T07:45:38.812Z,4.50
2018-12-29T07:48:24.916Z,4.53
2018-12-29T07:50:55.629Z,4.66
2018-12-29T07:53:35.762Z,4.70
2018-12-29T07:56:13.820Z,4.76
2018-12-29T07:58:50.697Z,4.84
2018-12-29T08:01:23.718Z,4.94
2018-12-29T08:04:00.312Z,4.99
2018-12-29T08:06:36.482Z,4.96
2018-12-29T08:09:17.753Z,5.04
2018-12-29T08:12:10.716Z,5.21
2018-12-29T08:14:43.475Z,5.23
2018-12-29T08:17:25.159Z,5.29
2018-12-29T08:20:12.187Z,5.37
2018-12-29T08:22:50.481Z,5.42
2018-12-29T08:25:30.871Z,5.49
2018-12-29T08:28:14.652Z,5.53
2018-12-29T08:30:55.701Z,5.67
2018-12-29T08:33:38.213Z,5.57
2018-12-29T08:36:20.935Z,5.55
2018-12-29T08:39:05.174Z,5.46
2018-12-29T08:41:50.466Z,5.54
2018-12-29T08:44:39.243Z,5.55
2018-12-29T08:47:21.912Z,5.57
2018-12-29T08:50:00.174Z,5.60
2018-12-29T08:52:37.688Z,5.58
2018-12-29T08:55:18.028Z,5.57
2018-12-29T08:57:54.336Z,5.54
2018-12-29T09:00:40.188Z,5.62
2018-12-29T09:03:22.693Z,5.66
2018-12-29T09:06:05.641Z,5.91
2018-12-29T09:08:52.467Z,5.78
2018-12-29T09:11:36.747Z,5.83
2018-12-29T09:14:06.775Z,5.96
2018-12-29T09:16:49.136Z,6.02
2018-12-29T09:19:35.263Z,5.96
2018-12-29T09:22:09.483Z,5.96
2018-12-29T09:24:43.266Z,5.87
2018-12-29T09:27:32.212Z,5.82
2018-12-29T09:30:15.986Z,5.82
2018-12-29T09:33:06.265Z,5.72
2018-12-29T09:35:57.684Z,5.78
2018-12-29T09:38:33.719Z,5.97
2018-12-29T09:41:13.769Z,6.10
2018-12-29T09:43:49.451Z,6.04
2018-12-29T09:46:25.802Z,6.04
2018-12-29T09:49:12.292Z,6.12
2018-12-29T09:51:48.310Z,6.17
2018-12-29T09:54:26.040Z,6.23
2018-12-29T09:57:03.960Z,6.31
2018-12-29T09:59:40.934Z,6.32
2018-12-29T10:02:23.136Z,6.52
2018-12-29T10:05:04.297Z,6.39
2018-12-29T10:07:40.678Z,6.26
2018-12-29T10:10:17.247Z,6.37
2018-12-29T10:13:03.971Z,6.25
2018-12-29T10:15:36.383Z,6.41
2018-12-29T10:18:18.575Z,6.32
2018-12-29T10:21:00.509Z,6.32
2018-12-29T10:23:32.692Z,6.49
2018-12-29T10:26:12.651Z,6.73
2018-12-29T10:28:46.960Z,6.66
2018-12-29T10:31:16.915Z,6.54
2018-12-29T10:33:46.729Z,6.55
2018-12-29T10:36:17.049Z,6.65
2018-12-29T10:38:47.525Z,6.74
2018-12-29T10:41:17.342Z,6.66
2018-12-29T10:43:47.472Z,6.66
2018-12-29T10:46:17.582Z,6.73
2018-12-29T10:48:47.604Z,6.75
2018-12-29T10:51:17.985Z,6.73
2018-12-29T10:53:48.252Z,6.66
2018-12-29T10:56:18.043Z,6.66
2018-12-29T10:58:47.871Z,6.74
2018-12-29T11:01:19.425Z,6.75
2018-12-29T11:03:52.019Z,6.79
2018-12-29T11:06:22.124Z,6.90
2018-12-29T11:08:52.367Z,6.90
2018-12-29T11:11:22.256Z,6.93
2018-12-29T11:13:52.285Z,6.92
2018-12-29T11:16:27.048Z,7.06
2018-12-29T11:18:57.606Z,6.97
2018-12-29T11:21:28.640Z,6.97
2018-12-29T11:23:58.731Z,6.96
2018-12-29T11:26:28.642Z,6.72
2018-12-29T11:28:58.631Z,6.72
2018-12-29T11:31:32.736Z,6.76
2018-12-29T11:34:03.121Z,6.79
2018-12-29T11:36:34.314Z,6.76
2018-12-29T11:39:07.958Z,6.68
2018-12-29T11:41:39.363Z,6.88
2018-12-29T11:44:09.482Z,6.79
2018-12-29T11:46:42.405Z,6.82
2018-12-29T11:49:18.119Z,6.82
2018-12-29T11:51:50.821Z,6.98
2018-12-29T11:54:21.450Z,6.98
2018-12-29T11:56:55.473Z,6.98
2018-12-29T11:59:25.853Z,7.08
2018-12-29T12:01:55.803Z,7.19
2018-12-29T12:04:28.674Z,7.32
2018-12-29T12:07:05.741Z,7.18
2018-12-29T12:09:38.459Z,7.02
2018-12-29T12:12:14.142Z,7.28
2018-12-29T12:14:45.546Z,7.31
2018-12-29T12:17:20.994Z,7.28
2018-12-29T12:19:51.329Z,7.08
2018-12-29T12:22:21.356Z,6.88
2018-12-29T12:24:51.553Z,6.98
2018-12-29T12:27:24.401Z,6.98
2018-12-29T12:29:56.719Z,7.15
2018-12-29T12:32:29.835Z,7.15
2018-12-29T12:35:00.234Z,7.19
2018-12-29T12:37:30.145Z,7.12
2018-12-29T12:40:00.482Z,6.96
2018-12-29T12:42:31.862Z,7.12
2018-12-29T12:45:02.561Z,7.17
2018-12-29T12:47:36.737Z,7.08
2018-12-29T12:50:07.159Z,7.08
2018-12-29T12:52:39.310Z,7.16
2018-12-29T12:55:11.521Z,7.28
2018-12-29T12:57:41.549Z,7.21
2018-12-29T13:00:14.097Z,7.22
2018-12-29T13:02:47.437Z,6.95
2018-12-29T13:05:18.798Z,6.83
2018-12-29T13:07:50.556Z,6.78
2018-12-29T13:10:37.228Z,6.78
2018-12-29T13:13:09.733Z,6.89
2018-12-29T13:15:39.549Z,7.00
2018-12-29T13:18:13.169Z,7.15
2018-12-29T13:20:42.655Z,6.96
2018-12-29T13:23:12.685Z,6.98
2018-12-29T13:25:42.465Z,7.07
2018-12-29T13:28:12.531Z,7.07
2018-12-29T13:30:42.329Z,7.04
2018-12-29T13:33:12.354Z,7.11
2018-12-29T13:35:42.751Z,7.09
2018-12-29T13:38:14.439Z,7.09
2018-12-29T13:40:46.517Z,7.14
2018-12-29T13:43:17.721Z,7.22
2018-12-29T13:45:48.922Z,7.35
2018-12-29T13:48:23.256Z,7.30
2018-12-29T13:50:53.822Z,7.24
2018-12-29T13:53:24.415Z,7.15
2018-12-29T13:55:57.745Z,7.15
2018-12-29T13:58:28.140Z,7.13
2018-12-29T14:00:59.111Z,6.96
2018-12-29T14:03:31.134Z,6.95
2018-12-29T14:06:01.839Z,6.98
2018-12-29T14:08:35.113Z,7.02
2018-12-29T14:11:07.476Z,7.00
2018-12-29T14:13:37.671Z,6.77
2018-12-29T14:16:08.032Z,6.77
2018-12-29T14:18:38.458Z,6.79
2018-12-29T14:21:13.483Z,6.86
2018-12-29T14:23:46.326Z,6.90
2018-12-29T14:26:16.620Z,6.98
2018-12-29T14:28:48.940Z,7.14
2018-12-29T14:31:19.545Z,7.14
2018-12-29T14:33:52.600Z,7.19
2018-12-29T14:36:22.713Z,7.27
2018-12-29T14:38:53.039Z,7.15
2018-12-29T14:41:28.428Z,6.99
2018-12-29T14:44:01.174Z,7.01
2018-12-29T14:46:34.721Z,7.07
2018-12-29T14:49:05.263Z,6.99
2018-12-29T14:51:36.651Z,6.93
2018-12-29T14:54:08.618Z,6.83
2018-12-29T14:56:44.543Z,6.87
2018-12-29T14:59:19.869Z,6.72
2018-12-29T15:01:49.722Z,6.78
2018-12-29T15:04:28.996Z,6.78
2018-12-29T15:07:06.210Z,6.42
2018-12-29T15:09:38.520Z,6.31
2018-12-29T15:12:17.505Z,6.31
2018-12-29T15:14:47.060Z,6.40
2018-12-29T15:17:23.087Z,6.36
2018-12-29T15:19:55.214Z,6.21
2018-12-29T15:22:25.777Z,6.12
2018-12-29T15:24:55.799Z,6.15
2018-12-29T15:27:27.526Z,6.33
2018-12-29T15:30:03.357Z,6.08
2018-12-29T15:32:34.820Z,5.99
2018-12-29T15:35:06.523Z,6.01
2018-12-29T15:37:39.979Z,6.09
2018-12-29T15:40:14.104Z,5.94
2018-12-29T15:42:49.268Z,5.91
2018-12-29T15:45:19.638Z,5.94
2018-12-29T15:48:01.948Z,6.03
2018-12-29T15:50:37.319Z,5.95
2018-12-29T15:53:08.237Z,6.00
2018-12-29T15:55:38.119Z,5.99
2018-12-29T15:58:08.466Z,5.95
2018-12-29T16:00:39.044Z,5.93
2018-12-29T16:03:15.676Z,6.05
2018-12-29T16:05:47.360Z,6.32
2018-12-29T16:08:19.223Z,6.29
2018-12-29T16:10:56.528Z,6.04
2018-12-29T16:13:26.739Z,6.02
2018-12-29T16:15:56.866Z,6.01
2018-12-29T16:18:27.255Z,6.06
2018-12-29T16:20:57.292Z,6.21
2018-12-29T16:23:27.484Z,6.07
2018-12-29T16:25:58.857Z,5.84
2018-12-29T16:28:28.869Z,5.83
2018-12-29T16:30:58.876Z,5.81
2018-12-29T16:33:33.312Z,5.76
2018-12-29T16:36:04.611Z,5.66
2018-12-29T16:38:39.974Z,5.66
2018-12-29T16:41:11.301Z,5.53
2018-12-29T16:43:41.805Z,5.49
2018-12-29T16:46:12.465Z,5.44
2018-12-29T16:48:47.751Z,5.45
2018-12-29T16:51:18.676Z,5.48
2018-12-29T16:53:50.327Z,5.47
2018-12-29T16:56:20.673Z,5.50
2018-12-29T16:58:51.514Z,5.44
2018-12-29T17:01:22.584Z,5.51
2018-12-29T17:03:56.752Z,5.57
2018-12-29T17:06:29.060Z,5.56
2018-12-29T17:09:08.221Z,5.57
2018-12-29T17:11:44.044Z,5.60
2018-12-29T17:14:15.256Z,5.66
2018-12-29T17:16:49.546Z,5.64
2018-12-29T17:19:22.683Z,5.61
2018-12-29T17:21:54.492Z,5.60
2018-12-29T17:24:32.717Z,5.69
2018-12-29T17:27:11.923Z,5.63
2018-12-29T17:29:51.314Z,5.69
2018-12-29T17:32:26.994Z,5.64
2018-12-29T17:34:59.230Z,5.61
2018-12-29T17:37:32.487Z,5.62
2018-12-29T17:40:05.039Z,5.82
2018-12-29T17:42:40.273Z,5.79
2018-12-29T17:45:11.916Z,5.57
2018-12-29T17:47:44.357Z,5.66
2018-12-29T17:50:24.587Z,5.44
2018-12-29T17:52:56.138Z,5.41
2018-12-29T17:55:26.553Z,5.34
2018-12-29T17:57:57.360Z,5.29
2018-12-29T18:00:30.215Z,5.41
2018-12-29T18:03:09.059Z,5.34
2018-12-29T18:05:44.233Z,5.34
2018-12-29T18:08:14.355Z,5.34
2018-12-29T18:10:47.130Z,5.31
2018-12-29T18:13:17.540Z,5.29
2018-12-29T18:15:48.066Z,5.34
2018-12-29T18:18:19.216Z,5.37
2018-12-29T18:20:49.335Z,5.38
2018-12-29T18:23:19.104Z,5.53
2018-12-29T18:25:51.019Z,5.60
2018-12-29T18:28:22.590Z,5.79
2018-12-29T18:30:52.787Z,5.78
2018-12-29T18:33:23.318Z,5.62
2018-12-29T18:35:54.473Z,5.55
2018-12-29T18:38:24.537Z,5.54
2018-12-29T18:40:55.115Z,5.62
2018-12-29T18:43:25.682Z,5.62
2018-12-29T18:45:57.699Z,5.59
2018-12-29T18:48:28.408Z,5.61
2018-12-29T18:50:59.388Z,5.58
2018-12-29T18:53:29.390Z,5.64
2018-12-29T18:55:59.453Z,5.63
2018-12-29T18:58:29.240Z,5.66
2018-12-29T19:01:19.637Z,5.82
2018-12-29T19:03:49.543Z,5.75
2018-12-29T19:06:19.532Z,5.85
2018-12-29T19:08:49.707Z,5.75
2018-12-29T19:11:19.615Z,5.74
2018-12-29T19:13:49.585Z,5.77
2018-12-29T19:16:19.754Z,5.78
2018-12-29T19:18:51.132Z,5.75
2018-12-29T19:21:23.732Z,5.84
2018-12-29T19:23:55.683Z,5.75
2018-12-29T19:26:27.392Z,5.74
2018-12-29T19:28:58.685Z,5.76
2018-12-29T19:31:30.070Z,5.88
2018-12-29T19:34:01.482Z,5.83
2018-12-29T19:36:32.970Z,5.93
2018-12-29T19:39:05.623Z,6.01
2018-12-29T19:41:46.317Z,5.85
2018-12-29T19:44:16.233Z,5.77
2018-12-29T19:46:54.240Z,5.75
2018-12-29T19:49:26.599Z,5.81
2018-12-29T19:52:06.370Z,5.73
2018-12-29T19:54:40.113Z,5.68
2018-12-29T19:57:13.395Z,5.71
2018-12-29T19:59:47.272Z,5.68
2018-12-29T20:02:18.753Z,5.65
2018-12-29T20:04:53.524Z,5.62
2018-12-29T20:07:31.607Z,5.66
2018-12-29T20:10:03.781Z,5.70
2018-12-29T20:12:42.581Z,5.75
2018-12-29T20:15:19.486Z,5.96
2018-12-29T20:17:54.397Z,6.02
2018-12-29T20:20:27.723Z,5.85
2018-12-29T20:23:02.987Z,5.78
2018-12-29T20:25:35.485Z,5.74
2018-12-29T20:28:06.751Z,5.78
2018-12-29T20:30:39.507Z,5.80
2018-12-29T20:33:12.311Z,5.79
2018-12-29T20:35:43.912Z,5.87
2018-12-29T20:38:14.887Z,5.74
2018-12-29T20:40:46.698Z,5.68
2018-12-29T20:43:17.857Z,5.69
2018-12-29T20:45:49.923Z,5.78
2018-12-29T20:48:21.092Z,5.80
2018-12-29T20:50:51.526Z,5.81
2018-12-29T20:53:23.810Z,5.95
2018-12-29T20:55:54.372Z,5.94
2018-12-29T20:58:25.702Z,5.84
2018-12-29T21:00:57.704Z,5.88
2018-12-29T21:03:31.061Z,5.86
2018-12-29T21:06:01.851Z,5.76
2018-12-29T21:08:34.395Z,5.78
2018-12-29T21:11:05.708Z,5.88
2018-12-29T21:13:38.778Z,5.86
2018-12-29T21:16:10.433Z,5.83
2018-12-29T21:18:41.569Z,5.75
2018-12-29T21:21:13.573Z,5.74
2018-12-29T21:23:46.162Z,5.73
2018-12-29T21:26:18.296Z,5.71
2018-12-29T21:28:50.387Z,5.75
2018-12-29T21:31:21.691Z,5.77
2018-12-29T21:33:56.470Z,6.03
2018-12-29T21:36:27.973Z,5.90
2018-12-29T21:39:02.292Z,6.04
2018-12-29T21:41:34.565Z,5.96
2018-12-29T21:44:04.835Z,5.85
2018-12-29T21:46:35.529Z,5.88
2018-12-29T21:49:05.694Z,5.93
2018-12-29T21:51:41.901Z,5.94
2018-12-29T21:54:13.198Z,5.90
2018-12-29T21:56:47.110Z,5.73
2018-12-29T21:59:18.562Z,5.64
2018-12-29T22:01:48.529Z,5.65
2018-12-29T22:04:19.548Z,5.56
2018-12-29T22:07:07.584Z,5.54
2018-12-29T22:09:48.017Z,5.64
2018-12-29T22:12:36.959Z,5.66
2018-12-29T22:15:05.009Z,5.61
2018-12-29T22:20:18.655Z,5.46
2018-12-29T22:22:51.808Z,5.50
2018-12-29T22:25:32.293Z,5.52
2018-12-29T22:28:09.940Z,5.54
2018-12-29T22:30:46.743Z,5.48
2018-12-29T22:33:21.677Z,5.48
2018-12-29T22:35:55.796Z,5.44
2018-12-29T22:38:29.148Z,5.44
2018-12-29T22:41:01.865Z,5.38
2018-12-29T22:43:33.631Z,5.37
2018-12-29T22:46:03.749Z,5.36
2018-12-29T22:48:45.699Z,5.42
2018-12-29T22:51:19.927Z,5.34
2018-12-29T22:54:00.788Z,5.31
2018-12-29T22:56:35.106Z,5.34
2018-12-29T22:59:08.054Z,5.34
2018-12-29T23:01:38.364Z,5.37
2018-12-29T23:04:13.344Z,5.22
2018-12-29T23:06:48.800Z,5.22
2018-12-29T23:09:20.464Z,5.13
2018-12-29T23:11:57.171Z,5.15
2018-12-29T23:14:29.425Z,5.14
2018-12-29T23:17:08.593Z,5.23
2018-12-29T23:19:42.477Z,5.21
2018-12-29T23:22:17.364Z,5.21
2018-12-29T23:24:49.199Z,5.22
2018-12-29T23:27:19.486Z,5.22
2018-12-29T23:29:52.431Z,5.26
2018-12-29T23:32:22.694Z,5.33
2018-12-29T23:35:03.915Z,5.28
2018-12-29T23:37:32.060Z,5.28
2018-12-29T23:40:09.506Z,5.21
2018-12-29T23:42:45.877Z,5.22
2018-12-29T23:45:18.557Z,5.34
2018-12-29T23:47:53.407Z,5.24
2018-12-29T23:50:23.767Z,5.18
2018-12-29T23:52:56.713Z,5.17
2018-12-29T23:55:33.091Z,5.18
2018-12-29T23:58:05.493Z,5.10
